createdAt,value
2023-04-16T00:00:31.066Z,106.64
2023-04-16T00:01:31.053Z,109.39
2023-04-16T00:02:31.148Z,108.69
2023-04-16T00:03:31.155Z,109.07
2023-04-16T00:04:31.229Z,110.89
2023-04-16T00:05:31.036Z,107.72
2023-04-16T00:06:31.019Z,110.74
2023-04-16T00:07:31.006Z,110.23
2023-04-16T00:08:31.030Z,106.97
2023-04-16T00:09:30.984Z,108.52
2023-04-16T00:10:31.017Z,109.79
2023-04-16T00:11:30.995Z,107.26
2023-04-16T00:12:30.979Z,108.52
2023-04-16T00:13:30.982Z,107.12
2023-04-16T00:14:30.975Z,106.56
2023-04-16T00:15:30.941Z,109.96
2023-04-16T00:16:30.952Z,108.59
2023-04-16T00:17:30.975Z,109.04
2023-04-16T00:18:30.924Z,110.08
2023-04-16T00:19:30.926Z,107.38
2023-04-16T00:20:30.936Z,107.66
2023-04-16T00:21:30.926Z,109.32
2023-04-16T00:22:30.888Z,106.60
2023-04-16T00:23:30.914Z,108.56
2023-04-16T00:24:30.902Z,105.64
2023-04-16T00:25:30.892Z,106.70
2023-04-16T00:26:30.872Z,110.93
2023-04-16T00:27:30.863Z,111.76
2023-04-16T00:28:30.845Z,111.09
2023-04-16T00:29:30.856Z,110.29
2023-04-16T00:30:30.816Z,109.20
2023-04-16T00:31:30.935Z,106.25
2023-04-16T00:32:30.871Z,105.77
2023-04-16T00:33:30.840Z,109.52
2023-04-16T00:34:30.813Z,110.08
2023-04-16T00:35:30.825Z,109.33
2023-04-16T00:36:30.820Z,108.13
2023-04-16T00:37:30.801Z,111.50
2023-04-16T00:38:30.807Z,110.29
2023-04-16T00:39:30.775Z,106.30
2023-04-16T00:40:30.772Z,107.85
2023-04-16T00:41:30.741Z,107.95
2023-04-16T00:42:30.768Z,104.80
2023-04-16T00:43:30.771Z,108.55
2023-04-16T00:44:30.726Z,107.61
2023-04-16T00:45:30.722Z,108.74
2023-04-16T00:46:30.749Z,108.47
2023-04-16T00:47:30.758Z,106.69
2023-04-16T00:48:30.719Z,107.30
2023-04-16T00:49:30.692Z,109.31
2023-04-16T00:50:30.718Z,109.10
2023-04-16T00:51:30.684Z,108.27
2023-04-16T00:52:30.690Z,107.49
2023-04-16T00:53:30.675Z,111.46
2023-04-16T00:54:30.653Z,106.60
2023-04-16T00:55:30.675Z,108.66
2023-04-16T00:56:30.662Z,108.71
2023-04-16T00:57:30.662Z,108.24
2023-04-16T00:58:30.657Z,109.64
2023-04-16T00:59:30.632Z,106.52
2023-04-16T01:00:30.601Z,111.89
2023-04-16T01:01:30.665Z,107.60
2023-04-16T01:02:30.710Z,107.12
2023-04-16T01:03:31.005Z,110.25
2023-04-16T01:04:30.683Z,108.25
2023-04-16T01:05:30.617Z,109.02
2023-04-16T01:06:30.631Z,107.08
2023-04-16T01:07:30.653Z,110.62
2023-04-16T01:08:30.690Z,107.36
2023-04-16T01:09:30.756Z,107.97
2023-04-16T01:10:30.745Z,108.41
2023-04-16T01:11:30.777Z,108.21
2023-04-16T01:12:30.813Z,107.35
2023-04-16T01:13:30.835Z,107.25
2023-04-16T01:14:30.906Z,105.21
2023-04-16T01:15:30.875Z,107.69
2023-04-16T01:16:30.938Z,107.43
2023-04-16T01:17:31.034Z,106.74
2023-04-16T01:18:31.012Z,107.41
2023-04-16T01:19:31.151Z,106.76
2023-04-16T01:20:31.067Z,108.24
2023-04-16T01:21:31.096Z,105.51
2023-04-16T01:22:31.122Z,112.45
2023-04-16T01:23:31.139Z,109.41
2023-04-16T01:24:32.184Z,108.82
2023-04-16T01:25:31.171Z,107.79
2023-04-16T01:26:31.230Z,105.62
2023-04-16T01:27:31.253Z,107.77
2023-04-16T01:28:31.361Z,106.49
2023-04-16T01:29:31.326Z,108.67
2023-04-16T01:30:31.371Z,107.72
2023-04-16T01:31:31.400Z,107.70
2023-04-16T01:32:31.441Z,107.39
2023-04-16T01:33:31.446Z,106.97
2023-04-16T01:34:31.444Z,108.52
2023-04-16T01:35:31.522Z,109.86
2023-04-16T01:36:31.523Z,107.59
2023-04-16T01:37:31.538Z,106.07
2023-04-16T01:38:31.628Z,106.30
2023-04-16T01:39:31.636Z,108.02
2023-04-16T01:40:31.655Z,103.38
2023-04-16T01:41:31.698Z,106.39
2023-04-16T01:42:31.696Z,107.07
2023-04-16T01:43:31.740Z,107.55
2023-04-16T01:44:31.773Z,103.06
2023-04-16T01:45:31.803Z,104.98
2023-04-16T01:46:31.857Z,104.23
2023-04-16T01:47:31.882Z,103.79
2023-04-16T01:48:31.870Z,103.62
2023-04-16T01:49:31.897Z,106.13
2023-04-16T01:50:31.951Z,105.14
2023-04-16T01:51:31.992Z,106.06
2023-04-16T01:52:32.003Z,107.51
2023-04-16T01:53:32.030Z,104.49
2023-04-16T01:54:32.087Z,107.85
2023-04-16T01:55:32.121Z,104.62
2023-04-16T01:56:32.158Z,102.25
2023-04-16T01:57:32.167Z,104.28
2023-04-16T01:58:32.176Z,104.75
2023-04-16T01:59:32.216Z,107.57
2023-04-16T02:00:32.305Z,106.66
2023-04-16T02:01:32.296Z,107.20
2023-04-16T02:02:32.425Z,105.47
2023-04-16T02:03:32.466Z,105.14
2023-04-16T02:04:32.387Z,105.02
2023-04-16T02:05:32.420Z,104.96
2023-04-16T02:06:32.443Z,110.99
2023-04-16T02:07:32.481Z,109.17
2023-04-16T02:08:32.514Z,107.69
2023-04-16T02:09:32.540Z,106.71
2023-04-16T02:10:32.579Z,101.13
2023-04-16T02:11:32.605Z,102.61
2023-04-16T02:12:32.628Z,105.77
2023-04-16T02:13:32.653Z,102.77
2023-04-16T02:14:32.691Z,105.09
2023-04-16T02:15:32.736Z,105.24
2023-04-16T02:16:32.798Z,101.48
2023-04-16T02:17:32.817Z,105.16
2023-04-16T02:18:32.822Z,103.34
2023-04-16T02:19:32.848Z,102.73
2023-04-16T02:20:32.894Z,104.09
2023-04-16T02:21:32.951Z,105.10
2023-04-16T02:22:32.975Z,105.75
2023-04-16T02:23:32.989Z,106.73
2023-04-16T02:24:33.036Z,103.98
2023-04-16T02:25:33.028Z,103.89
2023-04-16T02:26:33.099Z,105.86
2023-04-16T02:27:33.109Z,104.81
2023-04-16T02:28:33.146Z,104.81
2023-04-16T02:29:33.167Z,104.59
2023-04-16T02:30:33.193Z,105.76
2023-04-16T02:31:33.259Z,103.62
2023-04-16T02:32:33.336Z,103.39
2023-04-16T02:33:33.324Z,106.54
2023-04-16T02:34:33.337Z,103.41
2023-04-16T02:35:33.365Z,105.73
2023-04-16T02:36:33.430Z,103.08
2023-04-16T02:37:33.437Z,102.13
2023-04-16T02:38:33.469Z,103.55
2023-04-16T02:39:33.489Z,103.45
2023-04-16T02:40:33.542Z,104.52
2023-04-16T02:41:33.582Z,105.11
2023-04-16T02:42:33.617Z,105.19
2023-04-16T02:43:33.644Z,103.71
2023-04-16T02:44:33.674Z,104.91
2023-04-16T02:45:33.756Z,103.26
2023-04-16T02:46:33.770Z,103.58
2023-04-16T02:47:33.845Z,105.71
2023-04-16T02:48:33.854Z,104.37
2023-04-16T02:49:33.857Z,104.76
2023-04-16T02:50:33.929Z,105.92
2023-04-16T02:51:33.961Z,101.91
2023-04-16T02:52:33.962Z,103.08
2023-04-16T02:53:34.083Z,103.74
2023-04-16T02:54:34.034Z,104.80
2023-04-16T02:55:34.093Z,102.61
2023-04-16T02:56:34.119Z,101.21
2023-04-16T02:57:34.167Z,108.07
2023-04-16T02:58:34.166Z,104.17
2023-04-16T02:59:34.238Z,104.73
2023-04-16T03:00:34.243Z,101.12
2023-04-16T03:01:34.311Z,100.08
2023-04-16T03:02:34.374Z,102.68
2023-04-16T03:03:34.352Z,104.18
2023-04-16T03:04:34.449Z,103.03
2023-04-16T03:05:34.404Z,100.36
2023-04-16T03:06:34.477Z,101.32
2023-04-16T03:07:34.519Z,104.60
2023-04-16T03:08:34.637Z,101.35
2023-04-16T03:09:34.577Z,102.10
2023-04-16T03:10:34.610Z,97.76
2023-04-16T03:11:34.607Z,103.34
2023-04-16T03:12:34.679Z,100.81
2023-04-16T03:13:34.731Z,101.76
2023-04-16T03:14:34.740Z,101.54
2023-04-16T03:15:34.864Z,100.85
2023-04-16T03:16:34.833Z,97.98
2023-04-16T03:17:34.876Z,104.63
2023-04-16T03:18:34.876Z,101.83
2023-04-16T03:19:34.942Z,101.58
2023-04-16T03:20:34.947Z,100.95
2023-04-16T03:21:34.990Z,103.15
2023-04-16T03:22:35.028Z,100.65
2023-04-16T03:23:35.072Z,102.99
2023-04-16T03:24:35.119Z,104.26
2023-04-16T03:25:35.140Z,103.15
2023-04-16T03:26:35.156Z,99.77
2023-04-16T03:27:35.185Z,101.58
2023-04-16T03:28:35.217Z,102.02
2023-04-16T03:29:35.249Z,104.48
2023-04-16T03:30:35.300Z,102.12
2023-04-16T03:31:35.383Z,101.28
2023-04-16T03:32:35.398Z,103.35
2023-04-16T03:33:35.439Z,102.03
2023-04-16T03:34:35.457Z,101.03
2023-04-16T03:35:35.504Z,100.14
2023-04-16T03:36:35.537Z,102.56
2023-04-16T03:37:35.550Z,103.10
2023-04-16T03:38:35.630Z,102.43
2023-04-16T03:39:35.637Z,98.05
2023-04-16T03:40:35.696Z,100.85
2023-04-16T03:41:35.719Z,99.49
2023-04-16T03:42:35.755Z,101.08
2023-04-16T03:43:35.828Z,100.76
2023-04-16T03:44:35.821Z,98.03
2023-04-16T03:45:35.884Z,100.60
2023-04-16T03:46:35.943Z,101.56
2023-04-16T03:47:36.003Z,101.14
2023-04-16T03:48:35.999Z,101.58
2023-04-16T03:49:36.020Z,99.24
2023-04-16T03:50:36.056Z,98.36
2023-04-16T03:51:36.114Z,99.41
2023-04-16T03:52:36.176Z,102.14
2023-04-16T03:53:36.173Z,98.31
2023-04-16T03:54:36.227Z,99.75
2023-04-16T03:55:36.247Z,98.05
2023-04-16T03:56:36.303Z,97.89
2023-04-16T03:57:36.363Z,96.43
2023-04-16T03:58:36.391Z,97.88
2023-04-16T03:59:36.414Z,95.89
2023-04-16T04:00:36.431Z,96.98
2023-04-16T04:01:36.532Z,97.85
2023-04-16T04:02:36.739Z,98.07
2023-04-16T04:03:36.952Z,102.51
2023-04-16T04:04:36.736Z,97.55
2023-04-16T04:05:36.641Z,101.61
2023-04-16T04:06:36.680Z,100.34
2023-04-16T04:07:36.753Z,95.98
2023-04-16T04:08:36.859Z,96.09
2023-04-16T04:09:36.786Z,98.32
2023-04-16T04:10:36.838Z,96.26
2023-04-16T04:11:36.917Z,99.00
2023-04-16T04:12:36.908Z,97.92
2023-04-16T04:13:36.952Z,95.90
2023-04-16T04:14:36.989Z,99.22
2023-04-16T04:15:37.045Z,94.96
2023-04-16T04:16:37.148Z,96.44
2023-04-16T04:17:37.150Z,99.55
2023-04-16T04:18:37.152Z,95.81
2023-04-16T04:19:40.249Z,95.02
2023-04-16T04:20:38.197Z,95.35
2023-04-16T04:21:37.174Z,95.95
2023-04-16T04:22:37.149Z,96.95
2023-04-16T04:23:37.183Z,98.96
2023-04-16T04:24:37.176Z,99.01
2023-04-16T04:25:37.167Z,94.88
2023-04-16T04:26:37.168Z,94.41
2023-04-16T04:27:37.137Z,100.76
2023-04-16T04:28:37.103Z,96.12
2023-04-16T04:29:37.133Z,97.70
2023-04-16T04:30:37.121Z,94.99
2023-04-16T04:31:38.062Z,96.66
2023-04-16T04:32:37.222Z,100.32
2023-04-16T04:33:37.223Z,97.50
2023-04-16T04:34:37.267Z,97.70
2023-04-16T04:35:37.312Z,95.68
2023-04-16T04:36:37.355Z,95.61
2023-04-16T04:37:37.393Z,96.45
2023-04-16T04:38:37.463Z,101.08
2023-04-16T04:39:37.471Z,96.64
2023-04-16T04:40:37.523Z,96.06
2023-04-16T04:41:37.582Z,96.27
2023-04-16T04:42:37.663Z,95.69
2023-04-16T04:43:37.683Z,96.39
2023-04-16T04:44:37.679Z,92.61
2023-04-16T04:45:37.804Z,92.53
2023-04-16T04:46:37.768Z,96.38
2023-04-16T04:47:37.868Z,99.22
2023-04-16T04:48:37.884Z,101.18
2023-04-16T04:49:37.944Z,96.63
2023-04-16T04:50:37.962Z,95.02
2023-04-16T04:51:38.030Z,96.74
2023-04-16T04:52:38.077Z,97.76
2023-04-16T04:53:38.094Z,97.69
2023-04-16T04:54:38.161Z,97.83
2023-04-16T04:55:38.218Z,98.61
2023-04-16T04:56:38.236Z,94.16
2023-04-16T04:57:38.260Z,93.59
2023-04-16T04:58:38.304Z,100.07
2023-04-16T04:59:38.361Z,95.18
2023-04-16T05:00:38.420Z,96.86
2023-04-16T05:01:38.567Z,98.65
2023-04-16T05:02:38.536Z,96.71
2023-04-16T05:03:38.872Z,94.16
2023-04-16T05:04:38.665Z,96.34
2023-04-16T05:05:38.665Z,95.81
2023-04-16T05:06:38.695Z,94.28
2023-04-16T05:07:38.748Z,94.58
2023-04-16T05:08:38.813Z,94.70
2023-04-16T05:09:38.801Z,98.52
2023-04-16T05:10:38.855Z,97.78
2023-04-16T05:11:38.873Z,95.47
2023-04-16T05:12:38.934Z,99.59
2023-04-16T05:13:38.977Z,95.86
2023-04-16T05:14:39.029Z,94.47
2023-04-16T05:15:39.084Z,92.56
2023-04-16T05:16:39.191Z,94.13
2023-04-16T05:17:39.161Z,95.33
2023-04-16T05:18:39.210Z,95.01
2023-04-16T05:19:39.274Z,95.52
2023-04-16T05:20:39.300Z,93.28
2023-04-16T05:21:39.383Z,93.99
2023-04-16T05:22:39.397Z,99.36
2023-04-16T05:23:39.451Z,100.23
2023-04-16T05:24:39.520Z,97.82
2023-04-16T05:25:39.532Z,92.90
2023-04-16T05:26:39.615Z,94.20
2023-04-16T05:27:39.623Z,96.15
2023-04-16T05:28:39.702Z,93.16
2023-04-16T05:29:39.743Z,97.40
2023-04-16T05:30:39.790Z,99.00
2023-04-16T05:31:39.834Z,95.75
2023-04-16T05:32:39.980Z,97.57
2023-04-16T05:33:39.918Z,97.27
2023-04-16T05:34:39.968Z,94.70
2023-04-16T05:35:40.147Z,96.34
2023-04-16T05:36:40.103Z,96.00
2023-04-16T05:37:40.129Z,93.61
2023-04-16T05:38:40.195Z,95.68
2023-04-16T05:39:40.226Z,94.12
2023-04-16T05:40:40.259Z,93.26
2023-04-16T05:41:40.316Z,95.30
2023-04-16T05:42:40.363Z,97.85
2023-04-16T05:43:40.398Z,93.46
2023-04-16T05:44:40.440Z,95.53
2023-04-16T05:45:40.483Z,94.15
2023-04-16T05:46:40.576Z,95.79
2023-04-16T05:47:40.625Z,93.66
2023-04-16T05:48:40.646Z,93.91
2023-04-16T05:49:40.683Z,95.00
2023-04-16T05:50:40.740Z,94.04
2023-04-16T05:51:40.772Z,94.36
2023-04-16T05:52:40.856Z,93.15
2023-04-16T05:53:40.876Z,95.99
2023-04-16T05:54:40.943Z,95.16
2023-04-16T05:55:40.983Z,98.19
2023-04-16T05:56:41.079Z,91.32
2023-04-16T05:57:41.079Z,95.54
2023-04-16T05:58:41.174Z,96.93
2023-04-16T05:59:41.184Z,96.69
2023-04-16T06:00:41.204Z,97.31
2023-04-16T06:01:41.273Z,96.59
2023-04-16T06:02:41.654Z,94.91
2023-04-16T06:03:41.486Z,95.30
2023-04-16T06:04:41.436Z,91.37
2023-04-16T06:05:41.499Z,97.51
2023-04-16T06:06:41.494Z,96.65
2023-04-16T06:07:41.531Z,97.56
2023-04-16T06:08:41.618Z,95.24
2023-04-16T06:09:41.662Z,96.82
2023-04-16T06:10:41.665Z,95.57
2023-04-16T06:11:41.720Z,98.92
2023-04-16T06:12:41.781Z,92.38
2023-04-16T06:13:41.802Z,93.38
2023-04-16T06:14:41.873Z,92.85
2023-04-16T06:15:41.958Z,96.55
2023-04-16T06:16:41.945Z,99.56
2023-04-16T06:17:42.053Z,94.79
2023-04-16T06:18:42.048Z,94.58
2023-04-16T06:19:42.123Z,95.91
2023-04-16T06:20:42.167Z,94.73
2023-04-16T06:21:42.203Z,94.70
2023-04-16T06:22:42.250Z,94.83
2023-04-16T06:23:42.345Z,94.09
2023-04-16T06:24:42.350Z,96.35
2023-04-16T06:25:42.398Z,98.57
2023-04-16T06:26:42.437Z,92.15
2023-04-16T06:27:42.511Z,94.81
2023-04-16T06:28:42.547Z,97.00
2023-04-16T06:29:42.606Z,93.73
2023-04-16T06:30:44.508Z,97.59
2023-04-16T06:31:42.731Z,92.09
2023-04-16T06:32:42.788Z,96.22
2023-04-16T06:33:42.796Z,97.17
2023-04-16T06:34:42.861Z,96.19
2023-04-16T06:35:42.924Z,96.55
2023-04-16T06:36:42.940Z,96.82
2023-04-16T06:37:42.994Z,94.32
2023-04-16T06:38:43.101Z,97.38
2023-04-16T06:39:43.079Z,94.61
2023-04-16T06:40:43.147Z,94.14
2023-04-16T06:41:43.182Z,99.03
2023-04-16T06:42:45.310Z,95.11
2023-04-16T06:43:43.289Z,95.77
2023-04-16T06:44:43.341Z,94.17
2023-04-16T06:45:43.396Z,94.80
2023-04-16T06:46:43.471Z,95.38
2023-04-16T06:47:43.509Z,95.40
2023-04-16T06:48:43.542Z,97.69
2023-04-16T06:49:43.597Z,96.57
2023-04-16T06:50:43.597Z,98.31
2023-04-16T06:51:43.649Z,97.08
2023-04-16T06:52:43.702Z,96.79
2023-04-16T06:53:43.745Z,97.29
2023-04-16T06:54:43.804Z,97.24
2023-04-16T06:55:43.837Z,100.66
2023-04-16T06:56:43.864Z,99.16
2023-04-16T06:57:43.940Z,95.46
2023-04-16T06:58:43.975Z,96.28
2023-04-16T06:59:44.012Z,96.05
2023-04-16T07:00:44.129Z,95.82
2023-04-16T07:01:44.123Z,96.03
2023-04-16T07:02:44.342Z,96.83
2023-04-16T07:03:44.278Z,96.04
2023-04-16T07:04:44.252Z,92.67
2023-04-16T07:05:44.309Z,95.18
2023-04-16T07:06:44.327Z,97.07
2023-04-16T07:07:44.369Z,95.06
2023-04-16T07:08:44.438Z,94.73
2023-04-16T07:09:44.450Z,93.56
2023-04-16T07:10:44.513Z,95.02
2023-04-16T07:11:44.560Z,100.20
2023-04-16T07:12:44.596Z,93.71
2023-04-16T07:13:44.650Z,95.89
2023-04-16T07:14:44.672Z,98.47
2023-04-16T07:15:44.709Z,96.80
2023-04-16T07:16:44.783Z,97.72
2023-04-16T07:17:44.827Z,98.68
2023-04-16T07:18:44.881Z,95.81
2023-04-16T07:19:44.903Z,101.76
2023-04-16T07:20:44.933Z,96.60
2023-04-16T07:21:44.990Z,97.18
2023-04-16T07:22:45.006Z,96.22
2023-04-16T07:23:45.047Z,96.37
2023-04-16T07:24:45.071Z,92.02
2023-04-16T07:25:46.004Z,95.04
2023-04-16T07:26:45.174Z,96.24
2023-04-16T07:27:45.212Z,97.39
2023-04-16T07:28:45.271Z,96.68
2023-04-16T07:29:45.282Z,95.23
2023-04-16T07:30:45.359Z,97.48
2023-04-16T07:31:45.403Z,94.11
2023-04-16T07:32:45.483Z,95.06
2023-04-16T07:33:45.490Z,98.78
2023-04-16T07:34:45.501Z,95.69
2023-04-16T07:35:45.558Z,94.93
2023-04-16T07:36:45.594Z,96.66
2023-04-16T07:37:45.653Z,96.74
2023-04-16T07:38:45.697Z,96.62
2023-04-16T07:39:45.726Z,97.89
2023-04-16T07:40:45.775Z,96.17
2023-04-16T07:41:45.830Z,103.25
2023-04-16T07:42:45.881Z,99.45
2023-04-16T07:43:45.924Z,96.62
2023-04-16T07:44:45.977Z,97.15
2023-04-16T07:45:45.975Z,96.55
2023-04-16T07:46:47.694Z,99.78
2023-04-16T07:47:46.128Z,98.07
2023-04-16T07:48:46.126Z,95.87
2023-04-16T07:49:46.178Z,99.19
2023-04-16T07:50:46.235Z,100.53
2023-04-16T07:51:46.255Z,96.74
2023-04-16T07:52:46.303Z,98.86
2023-04-16T07:53:46.346Z,95.62
2023-04-16T07:54:46.386Z,96.88
2023-04-16T07:55:46.394Z,98.19
2023-04-16T07:56:46.466Z,95.72
2023-04-16T07:57:46.499Z,96.70
2023-04-16T07:58:46.533Z,95.67
2023-04-16T07:59:46.557Z,96.97
2023-04-16T08:00:46.608Z,96.30
2023-04-16T08:01:46.650Z,97.16
2023-04-16T08:02:46.776Z,101.28
2023-04-16T08:03:46.949Z,100.68
2023-04-16T08:04:46.964Z,94.89
2023-04-16T08:05:46.808Z,98.98
2023-04-16T08:06:46.857Z,97.90
2023-04-16T08:07:46.888Z,97.28
2023-04-16T08:08:46.925Z,96.95
2023-04-16T08:09:46.971Z,98.33
2023-04-16T08:10:47.019Z,98.47
2023-04-16T08:11:47.092Z,97.16
2023-04-16T08:12:47.098Z,97.70
2023-04-16T08:13:47.135Z,97.77
2023-04-16T08:14:47.183Z,97.40
2023-04-16T08:15:47.265Z,99.76
2023-04-16T08:16:47.214Z,98.29
2023-04-16T08:17:47.306Z,97.09
2023-04-16T08:18:47.318Z,98.67
2023-04-16T08:19:47.363Z,95.70
2023-04-16T08:20:47.378Z,97.09
2023-04-16T08:21:47.457Z,98.96
2023-04-16T08:22:47.457Z,99.07
2023-04-16T08:23:47.482Z,97.09
2023-04-16T08:24:47.532Z,98.57
2023-04-16T08:25:47.581Z,97.81
2023-04-16T08:26:47.611Z,98.08
2023-04-16T08:27:47.639Z,96.02
2023-04-16T08:28:47.687Z,94.71
2023-04-16T08:29:47.740Z,99.51
2023-04-16T08:30:47.801Z,103.03
2023-04-16T08:31:47.893Z,98.68
2023-04-16T08:32:49.937Z,101.19
2023-04-16T08:33:47.868Z,100.73
2023-04-16T08:34:47.882Z,98.02
2023-04-16T08:35:47.899Z,99.44
2023-04-16T08:36:47.919Z,96.58
2023-04-16T08:37:47.977Z,98.46
2023-04-16T08:38:48.000Z,99.56
2023-04-16T08:39:48.049Z,97.75
2023-04-16T08:40:48.062Z,99.56
2023-04-16T08:41:48.110Z,98.28
2023-04-16T08:42:48.113Z,98.36
2023-04-16T08:43:48.185Z,99.55
2023-04-16T08:44:49.000Z,98.51
2023-04-16T08:45:49.164Z,97.93
2023-04-16T08:46:48.290Z,96.03
2023-04-16T08:47:48.379Z,95.95
2023-04-16T08:48:48.314Z,98.19
2023-04-16T08:49:48.352Z,99.31
2023-04-16T08:50:48.333Z,97.16
2023-04-16T08:51:48.394Z,97.96
2023-04-16T08:52:48.403Z,100.11
2023-04-16T08:53:48.470Z,100.49
2023-04-16T08:54:56.584Z,97.81
2023-04-16T08:55:49.476Z,98.02
2023-04-16T08:56:48.458Z,98.28
2023-04-16T08:57:48.426Z,98.59
2023-04-16T08:58:48.435Z,98.68
2023-04-16T08:59:48.441Z,99.16
2023-04-16T09:00:48.440Z,100.31
2023-04-16T09:01:48.491Z,99.71
2023-04-16T09:02:48.655Z,97.78
2023-04-16T09:03:48.590Z,100.77
2023-04-16T09:04:48.438Z,102.75
2023-04-16T09:05:48.401Z,97.16
2023-04-16T09:06:48.413Z,100.05
2023-04-16T09:07:48.408Z,101.05
2023-04-16T09:08:48.356Z,100.33
2023-04-16T09:09:48.406Z,103.41
2023-04-16T09:10:48.383Z,99.51
2023-04-16T09:11:48.412Z,98.18
2023-04-16T09:12:48.431Z,96.23
2023-04-16T09:13:48.471Z,100.93
2023-04-16T09:14:48.470Z,98.40
2023-04-16T09:15:48.490Z,98.55
2023-04-16T09:16:48.537Z,97.76
2023-04-16T09:17:48.674Z,99.04
2023-04-16T09:18:48.643Z,98.70
2023-04-16T09:19:48.668Z,97.92
2023-04-16T09:20:48.644Z,100.46
2023-04-16T09:21:48.680Z,102.19
2023-04-16T09:22:48.742Z,100.79
2023-04-16T09:23:48.768Z,97.63
2023-04-16T09:24:48.787Z,97.99
2023-04-16T09:25:48.822Z,99.93
2023-04-16T09:26:48.876Z,99.71
2023-04-16T09:27:48.862Z,97.48
2023-04-16T09:28:48.913Z,97.38
2023-04-16T09:29:48.941Z,99.75
2023-04-16T09:30:48.994Z,101.34
2023-04-16T09:31:49.038Z,101.86
2023-04-16T09:32:49.038Z,101.30
2023-04-16T09:33:49.091Z,100.37
2023-04-16T09:34:49.075Z,100.30
2023-04-16T09:35:49.105Z,99.28
2023-04-16T09:36:49.154Z,100.61
2023-04-16T09:37:49.178Z,97.54
2023-04-16T09:38:49.204Z,98.36
2023-04-16T09:39:49.234Z,100.47
2023-04-16T09:40:49.291Z,100.05
2023-04-16T09:41:49.296Z,99.28
2023-04-16T09:42:49.348Z,99.78
2023-04-16T09:43:49.385Z,100.57
2023-04-16T09:44:49.405Z,103.88
2023-04-16T09:45:49.497Z,101.33
2023-04-16T09:46:49.458Z,99.49
2023-04-16T09:47:49.533Z,100.26
2023-04-16T09:48:49.526Z,100.06
2023-04-16T09:49:49.564Z,99.47
2023-04-16T09:50:49.591Z,98.05
2023-04-16T09:51:49.643Z,102.35
2023-04-16T09:52:49.659Z,102.40
2023-04-16T09:53:49.700Z,100.25
2023-04-16T09:54:49.725Z,102.96
2023-04-16T09:55:49.783Z,99.99
2023-04-16T09:56:49.780Z,101.81
2023-04-16T09:57:49.830Z,97.56
2023-04-16T09:58:49.919Z,99.60
2023-04-16T09:59:49.918Z,100.39
2023-04-16T10:00:49.987Z,103.43
2023-04-16T10:01:50.192Z,102.78
2023-04-16T10:02:50.771Z,98.78
2023-04-16T10:03:50.152Z,99.30
2023-04-16T10:04:50.407Z,102.69
2023-04-16T10:05:50.068Z,102.20
2023-04-16T10:06:50.072Z,101.44
2023-04-16T10:07:50.111Z,101.88
2023-04-16T10:08:50.461Z,100.60
2023-04-16T10:09:50.160Z,98.81
2023-04-16T10:10:50.190Z,101.32
2023-04-16T10:11:50.216Z,101.47
2023-04-16T10:12:50.210Z,102.25
2023-04-16T10:13:50.280Z,101.69
2023-04-16T10:14:50.540Z,101.91
2023-04-16T10:15:50.334Z,100.35
2023-04-16T10:16:50.357Z,102.91
2023-04-16T10:17:50.411Z,102.22
2023-04-16T10:18:50.417Z,101.46
2023-04-16T10:19:50.391Z,99.52
2023-04-16T10:20:50.437Z,104.39
2023-04-16T10:21:50.466Z,101.65
2023-04-16T10:22:50.487Z,102.90
2023-04-16T10:23:50.505Z,100.95
2023-04-16T10:24:50.543Z,99.35
2023-04-16T10:25:50.585Z,102.02
2023-04-16T10:26:50.620Z,102.01
2023-04-16T10:27:50.628Z,100.04
2023-04-16T10:28:50.648Z,99.17
2023-04-16T10:29:50.675Z,97.12
2023-04-16T10:30:50.758Z,99.79
2023-04-16T10:31:50.747Z,99.27
2023-04-16T10:32:50.761Z,95.70
2023-04-16T10:33:50.798Z,100.89
2023-04-16T10:34:50.793Z,101.93
2023-04-16T10:36:01.190Z,102.91
2023-04-16T10:36:51.830Z,103.10
2023-04-16T10:37:50.808Z,103.13
2023-04-16T10:38:50.831Z,101.21
2023-04-16T10:39:50.820Z,102.07
2023-04-16T10:40:50.791Z,101.39
2023-04-16T10:41:50.796Z,103.61
2023-04-16T10:42:50.780Z,104.13
2023-04-16T10:43:50.826Z,101.73
2023-04-16T10:44:50.764Z,102.05
2023-04-16T10:45:50.763Z,102.08
2023-04-16T10:46:50.740Z,102.75
2023-04-16T10:47:50.748Z,100.66
2023-04-16T10:48:51.000Z,103.92
2023-04-16T10:49:50.718Z,101.77
2023-04-16T10:50:52.071Z,101.22
2023-04-16T10:51:50.701Z,102.80
2023-04-16T10:52:50.712Z,101.46
2023-04-16T10:53:50.696Z,103.23
2023-04-16T10:54:50.687Z,101.81
2023-04-16T10:55:50.672Z,103.61
2023-04-16T10:56:50.664Z,102.88
2023-04-16T10:57:50.664Z,99.11
2023-04-16T10:58:50.694Z,101.00
2023-04-16T10:59:50.694Z,100.16
2023-04-16T11:00:50.733Z,103.56
2023-04-16T11:01:50.836Z,102.10
2023-04-16T11:02:50.852Z,104.96
2023-04-16T11:03:50.958Z,100.33
2023-04-16T11:04:50.850Z,103.33
2023-04-16T11:05:50.835Z,101.54
2023-04-16T11:06:50.837Z,103.30
2023-04-16T11:07:50.853Z,102.28
2023-04-16T11:08:54.502Z,102.96
2023-04-16T11:09:50.890Z,103.13
2023-04-16T11:10:50.906Z,100.66
2023-04-16T11:11:50.852Z,102.70
2023-04-16T11:12:50.833Z,101.44
2023-04-16T11:13:50.847Z,102.96
2023-04-16T11:14:50.839Z,103.70
2023-04-16T11:15:50.849Z,104.40
2023-04-16T11:16:50.811Z,101.44
2023-04-16T11:17:51.942Z,101.20
2023-04-16T11:18:51.899Z,103.99
2023-04-16T11:19:50.785Z,103.19
2023-04-16T11:20:50.793Z,108.22
2023-04-16T11:21:50.764Z,105.69
2023-04-16T11:22:50.904Z,106.41
2023-04-16T11:23:50.784Z,103.83
2023-04-16T11:24:50.779Z,103.30
2023-04-16T11:25:50.744Z,98.61
2023-04-16T11:26:50.717Z,100.80
2023-04-16T11:27:50.723Z,98.48
2023-04-16T11:28:50.709Z,100.79
2023-04-16T11:29:50.735Z,99.44
2023-04-16T11:30:50.736Z,105.19
2023-04-16T11:31:50.795Z,100.61
2023-04-16T11:32:50.733Z,101.33
2023-04-16T11:33:50.678Z,101.09
2023-04-16T11:34:50.652Z,100.08
2023-04-16T11:35:50.682Z,99.74
2023-04-16T11:36:50.713Z,101.87
2023-04-16T11:37:50.648Z,101.82
2023-04-16T11:38:50.655Z,101.08
2023-04-16T11:39:50.641Z,99.56
2023-04-16T11:40:50.654Z,98.54
2023-04-16T11:41:50.609Z,98.71
2023-04-16T11:42:50.605Z,99.36
2023-04-16T11:43:50.608Z,100.95
2023-04-16T11:44:50.597Z,99.76
2023-04-16T11:45:50.621Z,102.75
2023-04-16T11:46:50.611Z,100.59
2023-04-16T11:47:50.603Z,101.53
2023-04-16T11:48:50.577Z,102.63
2023-04-16T11:49:50.600Z,101.47
2023-04-16T11:50:50.576Z,105.21
2023-04-16T11:51:50.564Z,100.18
2023-04-16T11:52:50.523Z,100.49
2023-04-16T11:53:50.553Z,102.19
2023-04-16T11:54:50.519Z,103.06
2023-04-16T11:55:50.534Z,101.11
2023-04-16T11:56:50.549Z,102.27
2023-04-16T11:57:51.006Z,102.47
2023-04-16T11:58:50.488Z,103.71
2023-04-16T12:00:02.381Z,105.00
2023-04-16T12:00:51.512Z,105.19
2023-04-16T12:01:50.592Z,105.27
2023-04-16T12:02:50.588Z,103.04
2023-04-16T12:03:50.727Z,104.99
2023-04-16T12:04:50.559Z,104.33
2023-04-16T12:05:50.461Z,102.39
2023-04-16T12:06:50.465Z,105.61
2023-04-16T12:07:50.451Z,105.88
2023-04-16T12:08:50.444Z,104.47
2023-04-16T12:09:50.432Z,102.73
2023-04-16T12:10:50.436Z,104.19
2023-04-16T12:11:50.394Z,104.38
2023-04-16T12:12:50.405Z,102.98
2023-04-16T12:13:50.411Z,105.31
2023-04-16T12:14:50.383Z,102.67
2023-04-16T12:15:50.369Z,100.63
2023-04-16T12:16:50.454Z,104.11
2023-04-16T12:17:50.442Z,103.12
2023-04-16T12:18:50.377Z,104.45
2023-04-16T12:19:50.379Z,106.53
2023-04-16T12:20:50.346Z,101.21
2023-04-16T12:21:50.336Z,104.91
2023-04-16T12:22:50.315Z,101.06
2023-04-16T12:23:50.344Z,104.29
2023-04-16T12:24:50.339Z,102.77
2023-04-16T12:25:50.314Z,103.59
2023-04-16T12:26:50.308Z,103.30
2023-04-16T12:27:52.334Z,105.39
2023-04-16T12:28:50.281Z,103.91
2023-04-16T12:29:50.277Z,105.26
2023-04-16T12:30:50.346Z,101.27
2023-04-16T12:31:50.284Z,103.75
2023-04-16T12:32:50.325Z,103.22
2023-04-16T12:33:50.249Z,100.70
2023-04-16T12:34:50.258Z,100.64
2023-04-16T12:35:50.237Z,102.35
2023-04-16T12:36:50.243Z,103.67
2023-04-16T12:37:50.220Z,102.34
2023-04-16T12:38:50.226Z,106.62
2023-04-16T12:39:50.199Z,102.85